Time;durP1;ratioP1;P1;durP2;ratioP2;P2;SDS_P1;SDS_P2;PMS_P1;PMS_P2;Temp;Humidity;BMP_temperature;BMP_pressure;BME280_temperature;BME280_humidity;BME280_pressure;Samples;Min_cycle;Max_cycle;Signal;HPM_P1;HPM_P2
2023/04/26 00:00:55;;;;;;;;;;;;;;;;;;5059757;28;19958;-70
2023/04/26 00:03:22;;;;;;;;;;;;;;;;;;5058148;28;19936;-70
2023/04/26 00:05:47;;;;;;;;;;;;;;;;;;5046832;28;19912;-69
2023/04/26 00:08:13;;;;;;;;;;;;;;;;;;5046369;28;20056;-70
2023/04/26 00:10:39;;;;;;;;;;;;;;;;;;5059240;28;19916;-71
2023/04/26 00:13:05;;;;;;;;;;;;;;;;;;5063335;28;19923;-71
2023/04/26 00:15:30;;;;;;;;;;;;;;;;;;5059493;28;20402;-70
2023/04/26 00:17:56;;;;;;;;;;;;;;;;;;5062201;28;20344;-71
2023/04/26 00:20:21;;;;;;;;;;;;;;;;;;5059808;28;20390;-70
2023/04/26 00:22:47;;;;;;;;;;;;;;;;;;5058398;28;19913;-70
2023/04/26 00:25:12;;;;;;;;;;;;;;;;;;5060540;28;20017;-70
2023/04/26 00:27:38;;;;;;;;;;;;;;;;;;5060305;28;19917;-71
2023/04/26 00:30:03;;;;;;;;;;;;;;;;;;5047682;28;19916;-71
2023/04/26 00:32:29;;;;;;;;;;;;;;;;;;5058292;28;19921;-70
2023/04/26 00:34:55;;;;;;;;;;;;;;;;;;5060249;28;19924;-69
2023/04/26 00:37:20;;;;;;;;;;;;;;;;;;5059049;28;19923;-70
2023/04/26 00:39:45;;;;;;;;;;;;;;;;;;5060741;28;20006;-70
2023/04/26 00:42:11;;;;;;;;;;;;;;;;;;5044843;28;20247;-70
2023/04/26 00:44:38;;;;;;;;;;;;;;;;;;5039248;28;19931;-71
2023/04/26 00:47:05;;;;;;;;;;;;;;;;;;5060785;28;19921;-71
2023/04/26 00:49:30;;;;;;;;;;;;;;;;;;5057528;28;19998;-71
2023/04/26 00:51:56;;;;;;;;;;;;;;;;;;5059741;28;20034;-70
2023/04/26 00:54:21;;;;;;;;;;;;;;;;;;5059337;28;20363;-70
2023/04/26 00:56:47;;;;;;;;;;;;;;;;;;5062178;28;19955;-70
2023/04/26 00:59:13;;;;;;;;;;;;;;;;;;5043943;28;19916;-69
2023/04/26 01:01:41;;;;;;;;;;;;;;;;;;5059947;28;19916;-70
2023/04/26 01:04:07;;;;;;;;;;;;;;;;;;5058902;28;19929;-70
2023/04/26 01:06:32;;;;;;;;;;;;;;;;;;5055910;28;19931;-69
2023/04/26 01:08:58;;;;;;;;;;;;;;;;;;5048024;28;19916;-70
2023/04/26 01:11:23;;;;;;;;;;;;;;;;;;5057792;28;19917;-70
2023/04/26 01:13:49;;;;;;;;;;;;;;;;;;5058729;28;19989;-71
2023/04/26 01:16:15;;;;;;;;;;;;;;;;;;5059764;28;19920;-70
2023/04/26 01:18:40;;;;;;;;;;;;;;;;;;5058264;28;20029;-71
2023/04/26 01:21:05;;;;;;;;;;;;;;;;;;5058587;28;19937;-71
2023/04/26 01:23:31;;;;;;;;;;;;;;;;;;5058873;28;19931;-70
2023/04/26 01:25:57;;;;;;;;;;;;;;;;;;5060481;28;19917;-70
2023/04/26 01:28:22;;;;;;;;;;;;;;;;;;5059026;28;20389;-70
2023/04/26 01:30:48;;;;;;;;;;;;;;;;;;5060299;28;19916;-70
2023/04/26 01:33:14;;;;;;;;;;;;;;;;;;5045765;28;19920;-70
2023/04/26 01:35:40;;;;;;;;;;;;;;;;;;5048554;28;19927;-71
2023/04/26 01:38:05;;;;;;;;;;;;;;;;;;5060401;28;19916;-75
2023/04/26 01:40:31;;;;;;;;;;;;;;;;;;5057538;28;19917;-70
2023/04/26 01:42:56;;;;;;;;;;;;;;;;;;5059539;28;20764;-71
2023/04/26 01:45:21;;;;;;;;;;;;;;;;;;5059828;28;19936;-70
2023/04/26 01:48:05;;;;;;;;;;;;;;;;;;5060660;28;20347;-70
2023/04/26 01:50:30;;;;;;;;;;;;;;;;;;5031334;28;20008;-70
2023/04/26 01:52:56;;;;;;;;;;;;;;;;;;5046191;28;19923;-70
2023/04/26 01:55:21;;;;;;;;;;;;;;;;;;5059296;28;20042;-71
2023/04/26 01:57:46;;;;;;;;;;;;;;;;;;5056705;28;19923;-70
2023/04/26 02:00:12;;;;;;;;;;;;;;;;;;5058978;28;19921;-70
2023/04/26 02:02:40;;;;;;;;;;;;;;;;;;5059333;28;19940;-70
2023/04/26 02:05:05;;;;;;;;;;;;;;;;;;5057972;28;19925;-70
2023/04/26 02:07:31;;;;;;;;;;;;;;;;;;5059376;28;19916;-70
2023/04/26 02:09:56;;;;;;;;;;;;;;;;;;5059217;28;20399;-70
2023/04/26 02:12:22;;;;;;;;;;;;;;;;;;5061263;28;19924;-70
2023/04/26 02:14:47;;;;;;;;;;;;;;;;;;5045219;28;19913;-70
2023/04/26 02:17:13;;;;;;;;;;;;;;;;;;5049164;28;19958;-70
2023/04/26 02:19:38;;;;;;;;;;;;;;;;;;5061914;28;20569;-66
2023/04/26 02:22:05;;;;;;;;;;;;;;;;;;5048930;28;19971;-66
2023/04/26 02:24:30;;;;;;;;;;;;;;;;;;5063654;28;19936;-67
2023/04/26 02:26:59;;;;;;;;;;;;;;;;;;5047157;28;19928;-67
2023/04/26 02:29:25;;;;;;;;;;;;;;;;;;5043079;28;20405;-65
2023/04/26 02:31:50;;;;;;;;;;;;;;;;;;5058963;28;20248;-66
2023/04/26 02:34:16;;;;;;;;;;;;;;;;;;5063000;28;19920;-66
2023/04/26 02:36:41;;;;;;;;;;;;;;;;;;5060785;28;20505;-66
2023/04/26 02:39:07;;;;;;;;;;;;;;;;;;5059996;28;19921;-66
2023/04/26 02:41:33;;;;;;;;;;;;;;;;;;5063907;28;19917;-66
2023/04/26 02:43:59;;;;;;;;;;;;;;;;;;5046713;28;20374;-66
2023/04/26 02:46:25;;;;;;;;;;;;;;;;;;5047203;28;19958;-68
2023/04/26 02:48:50;;;;;;;;;;;;;;;;;;5062323;28;19969;-66
2023/04/26 02:51:16;;;;;;;;;;;;;;;;;;5047099;28;20379;-67
2023/04/26 02:53:41;;;;;;;;;;;;;;;;;;5048996;28;19999;-67
2023/04/26 02:56:07;;;;;;;;;;;;;;;;;;5060982;28;19925;-66
2023/04/26 02:58:32;;;;;;;;;;;;;;;;;;5027032;28;20391;-67
2023/04/26 03:00:58;;;;;;;;;;;;;;;;;;5039368;28;20438;-67
2023/04/26 03:03:23;;;;;;;;;;;;;;;;;;5033733;28;19951;-66
2023/04/26 03:05:49;;;;;;;;;;;;;;;;;;5052514;28;19921;-67
2023/04/26 03:08:14;;;;;;;;;;;;;;;;;;5042645;28;19923;-68
2023/04/26 03:10:40;;;;;;;;;;;;;;;;;;5062660;28;19958;-67
2023/04/26 03:13:06;;;;;;;;;;;;;;;;;;5047464;28;20386;-67
2023/04/26 03:15:31;;;;;;;;;;;;;;;;;;5048586;28;20002;-66
2023/04/26 03:17:57;;;;;;;;;;;;;;;;;;5048894;28;20355;-66
2023/04/26 03:20:22;;;;;;;;;;;;;;;;;;5051084;28;20497;-70
2023/04/26 03:22:48;;;;;;;;;;;;;;;;;;5056806;28;20019;-71
2023/04/26 03:25:15;;;;;;;;;;;;;;;;;;5030063;28;20037;-72
2023/04/26 03:27:41;;;;;;;;;;;;;;;;;;5036781;28;19989;-72
2023/04/26 03:30:06;;;;;;;;;;;;;;;;;;5044634;28;19920;-64
2023/04/26 03:32:33;;;;;;;;;;;;;;;;;;5048054;28;19920;-66
2023/04/26 03:34:59;;;;;;;;;;;;;;;;;;5064000;28;19916;-67
2023/04/26 03:37:24;;;;;;;;;;;;;;;;;;5050094;28;20391;-67
2023/04/26 03:39:56;;;;;;;;;;;;;;;;;;5026447;28;20392;-67
2023/04/26 03:42:22;;;;;;;;;;;;;;;;;;5041971;28;19921;-67
2023/04/26 03:44:47;;;;;;;;;;;;;;;;;;5043620;28;20291;-67
2023/04/26 03:47:16;;;;;;;;;;;;;;;;;;5043935;28;19917;-66
2023/04/26 03:49:42;;;;;;;;;;;;;;;;;;5033129;28;20397;-66
2023/04/26 03:52:07;;;;;;;;;;;;;;;;;;5044837;28;19917;-67
2023/04/26 03:54:33;;;;;;;;;;;;;;;;;;5047353;28;19987;-68
2023/04/26 03:56:59;;;;;;;;;;;;;;;;;;5058736;28;20014;-66
2023/04/26 03:59:24;;;;;;;;;;;;;;;;;;5046661;28;19962;-67
2023/04/26 04:01:49;;;;;;;;;;;;;;;;;;5045264;28;19946;-67
2023/04/26 04:04:15;;;;;;;;;;;;;;;;;;5060122;28;19967;-61
2023/04/26 04:06:42;;;;;;;;;;;;;;;;;;5042965;28;19935;-61
2023/04/26 04:09:07;;;;;;;;;;;;;;;;;;5059217;28;19992;-61
2023/04/26 04:11:33;;;;;;;;;;;;;;;;;;5057688;28;20342;-61
2023/04/26 04:14:01;;;;;;;;;;;;;;;;;;5058555;28;19935;-61
2023/04/26 04:16:26;;;;;;;;;;;;;;;;;;5056792;28;19939;-61
2023/04/26 04:18:52;;;;;;;;;;;;;;;;;;5044730;28;20373;-62
2023/04/26 04:21:17;;;;;;;;;;;;;;;;;;5059855;28;19970;-61
2023/04/26 04:23:43;;;;;;;;;;;;;;;;;;5046652;28;19974;-61
2023/04/26 04:26:11;;;;;;;;;;;;;;;;;;5040744;28;19935;-61
2023/04/26 04:28:37;;;;;;;;;;;;;;;;;;5045735;28;19930;-61
2023/04/26 04:31:02;;;;;;;;;;;;;;;;;;5043247;28;19934;-61
2023/04/26 04:33:28;;;;;;;;;;;;;;;;;;5045174;28;20043;-61
2023/04/26 04:35:55;;;;;;;;;;;;;;;;;;5041291;28;19931;-61
2023/04/26 04:38:20;;;;;;;;;;;;;;;;;;5045484;28;20453;-61
2023/04/26 04:40:46;;;;;;;;;;;;;;;;;;5041712;28;19928;-61
2023/04/26 04:43:11;;;;;;;;;;;;;;;;;;5060965;28;20401;-61
2023/04/26 04:45:37;;;;;;;;;;;;;;;;;;5043112;28;20477;-63
2023/04/26 04:48:04;;;;;;;;;;;;;;;;;;5044016;28;20088;-63
2023/04/26 04:50:30;;;;;;;;;;;;;;;;;;5038706;28;20417;-63
2023/04/26 04:52:56;;;;;;;;;;;;;;;;;;5041859;28;20406;-63
2023/04/26 04:55:22;;;;;;;;;;;;;;;;;;5057514;28;20127;-63
2023/04/26 04:57:47;;;;;;;;;;;;;;;;;;5048054;28;19930;-63
2023/04/26 05:00:13;;;;;;;;;;;;;;;;;;5045024;28;19933;-63
2023/04/26 05:02:46;;;;;;;;;;;;;;;;;;5058558;28;19960;-64
2023/04/26 05:05:11;;;;;;;;;;;;;;;;;;5043466;28;20482;-63
2023/04/26 05:07:37;;;;;;;;;;;;;;;;;;5058319;28;20022;-61
2023/04/26 05:10:02;;;;;;;;;;;;;;;;;;5046841;28;19943;-61
2023/04/26 05:12:27;;;;;;;;;;;;;;;;;;5044680;28;19935;-67
2023/04/26 05:14:53;;;;;;;;;;;;;;;;;;5041015;28;19932;-67
2023/04/26 05:17:18;;;;;;;;;;;;;;;;;;5048544;28;20311;-67
2023/04/26 05:19:44;;;;;;;;;;;;;;;;;;5045675;28;19999;-67
2023/04/26 05:22:10;;;;;;;;;;;;;;;;;;5056272;28;20438;-68
2023/04/26 05:24:35;;;;;;;;;;;;;;;;;;5044158;28;20423;-68
2023/04/26 05:27:03;;;;;;;;;;;;;;;;;;5027819;28;20488;-68
2023/04/26 05:29:47;;;;;;;;;;;;;;;;;;5024953;28;19933;-67
2023/04/26 05:32:27;;;;;;;;;;;;;;;;;;5032537;28;20015;-67
2023/04/26 05:35:05;;;;;;;;;;;;;;;;;;5043950;28;19927;-67
2023/04/26 05:37:31;;;;;;;;;;;;;;;;;;5046483;28;20421;-70
2023/04/26 05:39:56;;;;;;;;;;;;;;;;;;5058615;28;19927;-69
2023/04/26 05:42:22;;;;;;;;;;;;;;;;;;5063507;28;20343;-67
2023/04/26 05:44:47;;;;;;;;;;;;;;;;;;5044163;28;19963;-66
2023/04/26 05:47:13;;;;;;;;;;;;;;;;;;5043773;28;19938;-66
2023/04/26 05:49:38;;;;;;;;;;;;;;;;;;5064610;28;19949;-67
2023/04/26 05:52:03;;;;;;;;;;;;;;;;;;5051524;28;19933;-67
2023/04/26 05:54:29;;;;;;;;;;;;;;;;;;5063791;28;20283;-67
2023/04/26 05:56:54;;;;;;;;;;;;;;;;;;5048462;28;19934;-65
2023/04/26 05:59:20;;;;;;;;;;;;;;;;;;5045705;28;20342;-66
2023/04/26 06:01:45;;;;;;;;;;;;;;;;;;5063318;28;19930;-66
2023/04/26 06:04:10;;;;;;;;;;;;;;;;;;5064099;28;19977;-67
2023/04/26 06:06:56;;;;;;;;;;;;;;;;;;5062277;28;20348;-66
2023/04/26 06:09:22;;;;;;;;;;;;;;;;;;5046882;28;20094;-67
2023/04/26 06:11:47;;;;;;;;;;;;;;;;;;5063012;28;20022;-67
2023/04/26 06:14:12;;;;;;;;;;;;;;;;;;5061252;28;20404;-67
2023/04/26 06:16:38;;;;;;;;;;;;;;;;;;5049434;28;20051;-67
2023/04/26 06:19:04;;;;;;;;;;;;;;;;;;5063597;28;19961;-64
2023/04/26 06:21:30;;;;;;;;;;;;;;;;;;5052298;28;19917;-65
2023/04/26 06:23:56;;;;;;;;;;;;;;;;;;5048561;28;19993;-66
2023/04/26 06:26:24;;;;;;;;;;;;;;;;;;5046348;28;20460;-65
2023/04/26 06:28:50;;;;;;;;;;;;;;;;;;5064539;28;19913;-65
2023/04/26 06:31:15;;;;;;;;;;;;;;;;;;5049192;28;20348;-66
2023/04/26 06:33:40;;;;;;;;;;;;;;;;;;5047079;28;20331;-66
2023/04/26 06:36:06;;;;;;;;;;;;;;;;;;5061593;28;19932;-65
2023/04/26 06:38:31;;;;;;;;;;;;;;;;;;5063746;28;19948;-65
2023/04/26 06:40:56;;;;;;;;;;;;;;;;;;5034893;28;19937;-65
2023/04/26 06:43:22;;;;;;;;;;;;;;;;;;5061527;28;20434;-67
2023/04/26 06:46:10;;;;;;;;;;;;;;;;;;5060499;28;19933;-66
2023/04/26 06:48:35;;;;;;;;;;;;;;;;;;5062430;28;19962;-66
2023/04/26 06:51:01;;;;;;;;;;;;;;;;;;5051043;28;19924;-61
2023/04/26 06:53:27;;;;;;;;;;;;;;;;;;5062447;28;19916;-66
2023/04/26 06:55:53;;;;;;;;;;;;;;;;;;5057631;28;19927;-63
2023/04/26 06:58:18;;;;;;;;;;;;;;;;;;5058409;28;20279;-64
2023/04/26 07:00:43;;;;;;;;;;;;;;;;;;5033522;28;19916;-65
2023/04/26 07:03:08;;;;;;;;;;;;;;;;;;5060620;28;19935;-65
2023/04/26 07:05:34;;;;;;;;;;;;;;;;;;5063961;28;19920;-64
2023/04/26 07:07:59;;;;;;;;;;;;;;;;;;5061103;28;19916;-64
2023/04/26 07:10:25;;;;;;;;;;;;;;;;;;5063098;28;19976;-63
2023/04/26 07:12:50;;;;;;;;;;;;;;;;;;5062287;28;19967;-64
2023/04/26 07:15:15;;;;;;;;;;;;;;;;;;5061783;28;19923;-63
2023/04/26 07:17:41;;;;;;;;;;;;;;;;;;5034301;28;19919;-63
2023/04/26 07:20:06;;;;;;;;;;;;;;;;;;5060661;28;20340;-63
2023/04/26 07:22:32;;;;;;;;;;;;;;;;;;5062317;28;19920;-63
2023/04/26 07:24:57;;;;;;;;;;;;;;;;;;5058958;28;19925;-63
2023/04/26 07:27:23;;;;;;;;;;;;;;;;;;5061120;28;20018;-64
2023/04/26 07:29:48;;;;;;;;;;;;;;;;;;5058779;28;19920;-64
2023/04/26 07:32:14;;;;;;;;;;;;;;;;;;5058850;28;19913;-63
2023/04/26 07:34:39;;;;;;;;;;;;;;;;;;5040216;28;20678;-64
2023/04/26 07:37:05;;;;;;;;;;;;;;;;;;5062264;28;20400;-64
2023/04/26 07:39:31;;;;;;;;;;;;;;;;;;5061339;28;20390;-64
2023/04/26 07:41:56;;;;;;;;;;;;;;;;;;5062845;28;20288;-63
2023/04/26 07:44:22;;;;;;;;;;;;;;;;;;5061005;28;19924;-63
2023/04/26 07:46:47;;;;;;;;;;;;;;;;;;5059194;28;19960;-63
2023/04/26 07:49:12;;;;;;;;;;;;;;;;;;5058784;28;19916;-67
2023/04/26 07:51:38;;;;;;;;;;;;;;;;;;5046394;28;19916;-64
2023/04/26 07:54:03;;;;;;;;;;;;;;;;;;5061597;28;20397;-65
2023/04/26 07:56:29;;;;;;;;;;;;;;;;;;5061597;28;20442;-65
2023/04/26 07:58:55;;;;;;;;;;;;;;;;;;5061236;28;19989;-64
2023/04/26 08:01:20;;;;;;;;;;;;;;;;;;5059618;28;20006;-65
2023/04/26 08:03:47;;;;;;;;;;;;;;;;;;5059040;28;19936;-67
2023/04/26 08:06:12;;;;;;;;;;;;;;;;;;5041472;28;19920;-66
2023/04/26 08:08:43;;;;;;;;;;;;;;;;;;5059870;28;19916;-64
2023/04/26 08:11:09;;;;;;;;;;;;;;;;;;5057303;28;19947;-69
2023/04/26 08:13:34;;;;;;;;;;;;;;;;;;5060378;28;19959;-65
2023/04/26 08:16:00;;;;;;;;;;;;;;;;;;5060439;28;19999;-65
2023/04/26 08:18:25;;;;;;;;;;;;;;;;;;5058660;28;19981;-65
2023/04/26 08:20:51;;;;;;;;;;;;;;;;;;5060989;28;19917;-65
2023/04/26 08:23:18;;;;;;;;;;;;;;;;;;5060810;28;19939;-65
2023/04/26 08:25:43;;;;;;;;;;;;;;;;;;5058914;28;20347;-65
2023/04/26 08:28:08;;;;;;;;;;;;;;;;;;5060998;28;19916;-63
2023/04/26 08:30:34;;;;;;;;;;;;;;;;;;5063149;28;19994;-64
2023/04/26 08:33:00;;;;;;;;;;;;;;;;;;5062103;28;20474;-63
2023/04/26 08:35:25;;;;;;;;;;;;;;;;;;5061561;28;19916;-63
2023/04/26 08:37:50;;;;;;;;;;;;;;;;;;5060706;28;19920;-64
2023/04/26 08:40:16;;;;;;;;;;;;;;;;;;5059206;28;20379;-62
2023/04/26 08:42:42;;;;;;;;;;;;;;;;;;5061054;28;19921;-62
2023/04/26 08:45:10;;;;;;;;;;;;;;;;;;5058921;28;20011;-62
2023/04/26 08:47:35;;;;;;;;;;;;;;;;;;5060131;28;19912;-64
2023/04/26 08:50:02;;;;;;;;;;;;;;;;;;5060763;28;20491;-63
2023/04/26 08:52:28;;;;;;;;;;;;;;;;;;5058495;28;19920;-63
2023/04/26 08:54:54;;;;;;;;;;;;;;;;;;5058402;28;19912;-66
2023/04/26 08:57:19;;;;;;;;;;;;;;;;;;5057648;28;19962;-64
2023/04/26 08:59:45;;;;;;;;;;;;;;;;;;5059675;28;20001;-64
2023/04/26 09:02:10;;;;;;;;;;;;;;;;;;5057694;28;19961;-64
2023/04/26 09:04:36;;;;;;;;;;;;;;;;;;5046493;28;19935;-64
2023/04/26 09:07:01;;;;;;;;;;;;;;;;;;5059373;28;19924;-67
2023/04/26 09:09:27;;;;;;;;;;;;;;;;;;5059606;28;20410;-66
2023/04/26 09:11:52;;;;;;;;;;;;;;;;;;5058076;28;19968;-64
2023/04/26 09:14:18;;;;;;;;;;;;;;;;;;5058740;28;19916;-64
2023/04/26 09:16:43;;;;;;;;;;;;;;;;;;5045799;28;19954;-64
2023/04/26 09:19:09;;;;;;;;;;;;;;;;;;5057186;28;19959;-64
2023/04/26 09:21:35;;;;;;;;;;;;;;;;;;5061667;28;19924;-65
2023/04/26 09:24:03;;;;;;;;;;;;;;;;;;5061646;28;19970;-64
2023/04/26 09:26:29;;;;;;;;;;;;;;;;;;5058718;28;19943;-64
2023/04/26 09:28:55;;;;;;;;;;;;;;;;;;5064465;28;20367;-65
2023/04/26 09:31:20;;;;;;;;;;;;;;;;;;5063795;28;19917;-65
2023/04/26 09:33:45;;;;;;;;;;;;;;;;;;5062757;28;20371;-64
2023/04/26 09:36:11;;;;;;;;;;;;;;;;;;5062130;28;19964;-63
2023/04/26 09:38:37;;;;;;;;;;;;;;;;;;5066634;28;20083;-64
2023/04/26 09:41:02;;;;;;;;;;;;;;;;;;5061781;28;19916;-65
2023/04/26 09:43:28;;;;;;;;;;;;;;;;;;5061452;28;19947;-64
2023/04/26 09:45:53;;;;;;;;;;;;;;;;;;5063004;28;20011;-65
2023/04/26 09:48:20;;;;;;;;;;;;;;;;;;5060967;28;19997;-62
2023/04/26 09:50:46;;;;;;;;;;;;;;;;;;5061400;28;20004;-61
2023/04/26 09:53:11;;;;;;;;;;;;;;;;;;5045370;28;19917;-62
2023/04/26 09:55:37;;;;;;;;;;;;;;;;;;5061712;28;19916;-63
2023/04/26 09:58:03;;;;;;;;;;;;;;;;;;5061001;28;20047;-63
2023/04/26 10:00:29;;;;;;;;;;;;;;;;;;5062654;28;19927;-62
2023/04/26 10:02:54;;;;;;;;;;;;;;;;;;5062549;28;19928;-62
2023/04/26 10:05:20;;;;;;;;;;;;;;;;;;5061624;28;19931;-63
2023/04/26 10:07:45;;;;;;;;;;;;;;;;;;5062303;28;20347;-62
2023/04/26 10:10:10;;;;;;;;;;;;;;;;;;5062006;28;20302;-62
2023/04/26 10:12:36;;;;;;;;;;;;;;;;;;5062694;28;20368;-63
2023/04/26 10:15:01;;;;;;;;;;;;;;;;;;5061578;28;19954;-63
2023/04/26 10:17:27;;;;;;;;;;;;;;;;;;5061859;28;19926;-62
2023/04/26 10:19:52;;;;;;;;;;;;;;;;;;5065401;28;19974;-61
2023/04/26 10:22:17;;;;;;;;;;;;;;;;;;5063151;28;20334;-63
2023/04/26 10:24:43;;;;;;;;;;;;;;;;;;5059534;28;20220;-61
2023/04/26 10:27:08;;;;;;;;;;;;;;;;;;5062634;28;19922;-61
2023/04/26 10:29:33;;;;;;;;;;;;;;;;;;5062596;28;19920;-60
2023/04/26 10:31:59;;;;;;;;;;;;;;;;;;5062085;28;19916;-61
2023/04/26 10:34:24;;;;;;;;;;;;;;;;;;5047258;28;20081;-61
2023/04/26 10:36:49;;;;;;;;;;;;;;;;;;5064022;28;19923;-61
2023/04/26 10:39:15;;;;;;;;;;;;;;;;;;5065181;28;19917;-61
2023/04/26 10:41:40;;;;;;;;;;;;;;;;;;5061323;28;20021;-61
2023/04/26 10:44:05;;;;;;;;;;;;;;;;;;5063069;28;20553;-62
2023/04/26 10:46:31;;;;;;;;;;;;;;;;;;5062423;28;19916;-62
2023/04/26 10:48:56;;;;;;;;;;;;;;;;;;5062492;28;19985;-62
2023/04/26 10:51:21;;;;;;;;;;;;;;;;;;5060703;28;19921;-61
2023/04/26 10:53:53;;;;;;;;;;;;;;;;;;5062609;28;20495;-60
2023/04/26 10:56:18;;;;;;;;;;;;;;;;;;5062560;28;19964;-61
2023/04/26 10:58:43;;;;;;;;;;;;;;;;;;5060315;28;20003;-61
2023/04/26 11:01:10;;;;;;;;;;;;;;;;;;5063696;28;20407;-61
2023/04/26 11:03:35;;;;;;;;;;;;;;;;;;5050457;28;19928;-60
2023/04/26 11:06:01;;;;;;;;;;;;;;;;;;5060691;28;20797;-61
2023/04/26 11:08:26;;;;;;;;;;;;;;;;;;5033104;28;19923;-62
2023/04/26 11:10:51;;;;;;;;;;;;;;;;;;5048308;28;19920;-61
2023/04/26 11:13:18;;;;;;;;;;;;;;;;;;5061753;28;20017;-62
2023/04/26 11:15:43;;;;;;;;;;;;;;;;;;5062214;28;20439;-61
2023/04/26 11:18:09;;;;;;;;;;;;;;;;;;5047955;28;20007;-62
2023/04/26 11:20:34;;;;;;;;;;;;;;;;;;5060861;28;19924;-61
2023/04/26 11:22:59;;;;;;;;;;;;;;;;;;5060786;28;19916;-63
2023/04/26 11:25:25;;;;;;;;;;;;;;;;;;5060847;28;20809;-62
2023/04/26 11:27:51;;;;;;;;;;;;;;;;;;5059800;28;19923;-61
2023/04/26 11:30:16;;;;;;;;;;;;;;;;;;5060746;28;20456;-61
2023/04/26 11:32:41;;;;;;;;;;;;;;;;;;5061147;28;19921;-63
2023/04/26 11:35:07;;;;;;;;;;;;;;;;;;5044505;28;19923;-64
2023/04/26 11:37:32;;;;;;;;;;;;;;;;;;5059036;28;20400;-66
2023/04/26 11:39:58;;;;;;;;;;;;;;;;;;5058345;28;19971;-66
2023/04/26 11:42:23;;;;;;;;;;;;;;;;;;5059013;28;19952;-64
2023/04/26 11:44:48;;;;;;;;;;;;;;;;;;5057442;28;20595;-65
2023/04/26 11:47:14;;;;;;;;;;;;;;;;;;5060097;28;19918;-66
2023/04/26 11:49:39;;;;;;;;;;;;;;;;;;5060017;28;19917;-66
2023/04/26 11:52:04;;;;;;;;;;;;;;;;;;5060656;28;19926;-65
2023/04/26 11:54:30;;;;;;;;;;;;;;;;;;5061108;28;19917;-66
2023/04/26 11:56:55;;;;;;;;;;;;;;;;;;5058846;28;19927;-67
2023/04/26 11:59:21;;;;;;;;;;;;;;;;;;5059631;28;19970;-66
2023/04/26 12:01:46;;;;;;;;;;;;;;;;;;5059837;28;19965;-65
2023/04/26 12:04:11;;;;;;;;;;;;;;;;;;5059797;28;19985;-66
2023/04/26 12:06:37;;;;;;;;;;;;;;;;;;5061783;28;20391;-66
2023/04/26 12:09:04;;;;;;;;;;;;;;;;;;5060098;28;19921;-66
2023/04/26 12:11:29;;;;;;;;;;;;;;;;;;5060392;28;20363;-66
2023/04/26 12:13:55;;;;;;;;;;;;;;;;;;5062382;28;20362;-65
2023/04/26 12:16:21;;;;;;;;;;;;;;;;;;5059174;28;19916;-66
2023/04/26 12:18:46;;;;;;;;;;;;;;;;;;5059028;28;20443;-66
2023/04/26 12:21:11;;;;;;;;;;;;;;;;;;5033103;28;20421;-67
2023/04/26 12:23:37;;;;;;;;;;;;;;;;;;5062087;28;19924;-66
2023/04/26 12:26:03;;;;;;;;;;;;;;;;;;5045584;28;19924;-67
2023/04/26 12:28:29;;;;;;;;;;;;;;;;;;5059932;28;19969;-66
2023/04/26 12:30:54;;;;;;;;;;;;;;;;;;5059471;28;20344;-66
2023/04/26 12:33:21;;;;;;;;;;;;;;;;;;5059540;28;19971;-66
2023/04/26 12:35:47;;;;;;;;;;;;;;;;;;5059591;28;19992;-66
2023/04/26 12:38:12;;;;;;;;;;;;;;;;;;5061978;28;19942;-65
2023/04/26 12:40:37;;;;;;;;;;;;;;;;;;5061266;28;19916;-66
2023/04/26 12:43:03;;;;;;;;;;;;;;;;;;5057468;28;20290;-66
2023/04/26 12:45:28;;;;;;;;;;;;;;;;;;5059104;28;20036;-64
2023/04/26 12:47:53;;;;;;;;;;;;;;;;;;5058657;28;19937;-68
2023/04/26 12:50:19;;;;;;;;;;;;;;;;;;5056987;28;20381;-67
2023/04/26 12:52:44;;;;;;;;;;;;;;;;;;5059124;28;20447;-68
2023/04/26 12:55:10;;;;;;;;;;;;;;;;;;5058947;28;20007;-68
2023/04/26 12:57:35;;;;;;;;;;;;;;;;;;5058113;28;19917;-68
2023/04/26 13:00:00;;;;;;;;;;;;;;;;;;5058145;28;20681;-68
2023/04/26 13:02:26;;;;;;;;;;;;;;;;;;5057566;28;20379;-71
2023/04/26 13:04:53;;;;;;;;;;;;;;;;;;5058901;28;20287;-69
2023/04/26 13:07:18;;;;;;;;;;;;;;;;;;5060320;28;19916;-68
2023/04/26 13:09:44;;;;;;;;;;;;;;;;;;5057177;28;19917;-67
2023/04/26 13:12:09;;;;;;;;;;;;;;;;;;5058415;28;20371;-69
2023/04/26 13:14:34;;;;;;;;;;;;;;;;;;5061258;28;19917;-68
2023/04/26 13:17:00;;;;;;;;;;;;;;;;;;5060476;28;19920;-70
2023/04/26 13:19:25;;;;;;;;;;;;;;;;;;5060417;28;19916;-67
2023/04/26 13:21:51;;;;;;;;;;;;;;;;;;5060226;28;19920;-68
2023/04/26 13:24:18;;;;;;;;;;;;;;;;;;5057860;28;20310;-69
2023/04/26 13:26:44;;;;;;;;;;;;;;;;;;5058128;28;19916;-70
2023/04/26 13:29:10;;;;;;;;;;;;;;;;;;5059790;28;19950;-67
2023/04/26 13:31:35;;;;;;;;;;;;;;;;;;5057198;28;20443;-68
2023/04/26 13:34:01;;;;;;;;;;;;;;;;;;5059575;28;20359;-68
2023/04/26 13:36:27;;;;;;;;;;;;;;;;;;5059146;28;19921;-70
2023/04/26 13:38:52;;;;;;;;;;;;;;;;;;5060828;28;20423;-67
2023/04/26 13:41:18;;;;;;;;;;;;;;;;;;5058483;28;20199;-69
2023/04/26 13:43:44;;;;;;;;;;;;;;;;;;5057247;28;20374;-67
2023/04/26 13:46:09;;;;;;;;;;;;;;;;;;5059614;28;19917;-65
2023/04/26 13:48:34;;;;;;;;;;;;;;;;;;5059351;28;20319;-65
2023/04/26 13:50:59;;;;;;;;;;;;;;;;;;5058754;28;20039;-66
2023/04/26 13:53:25;;;;;;;;;;;;;;;;;;5059535;28;20341;-59
2023/04/26 13:55:50;;;;;;;;;;;;;;;;;;5059763;28;20345;-64
2023/04/26 13:58:16;;;;;;;;;;;;;;;;;;5046841;28;19916;-70
2023/04/26 14:00:41;;;;;;;;;;;;;;;;;;5056998;28;19916;-69
2023/04/26 14:03:06;;;;;;;;;;;;;;;;;;5059099;28;20490;-66
2023/04/26 14:05:32;;;;;;;;;;;;;;;;;;5060747;28;19928;-64
2023/04/26 14:07:57;;;;;;;;;;;;;;;;;;5048834;28;19917;-69
2023/04/26 14:10:22;;;;;;;;;;;;;;;;;;5058676;28;19922;-67
2023/04/26 14:12:48;;;;;;;;;;;;;;;;;;5061061;28;20311;-74
2023/04/26 14:15:14;;;;;;;;;;;;;;;;;;5064218;28;20455;-69
2023/04/26 14:17:39;;;;;;;;;;;;;;;;;;5062309;28;20439;-62
2023/04/26 14:20:04;;;;;;;;;;;;;;;;;;5063762;28;19940;-64
2023/04/26 14:22:29;;;;;;;;;;;;;;;;;;5061791;28;19939;-66
2023/04/26 14:24:55;;;;;;;;;;;;;;;;;;5058474;28;19928;-67
2023/04/26 14:27:20;;;;;;;;;;;;;;;;;;5062009;28;20481;-70
2023/04/26 14:29:46;;;;;;;;;;;;;;;;;;5064109;28;19924;-68
2023/04/26 14:32:11;;;;;;;;;;;;;;;;;;5046406;28;20004;-67
2023/04/26 14:34:38;;;;;;;;;;;;;;;;;;5063973;28;20257;-67
2023/04/26 14:37:03;;;;;;;;;;;;;;;;;;5049410;28;19955;-68
2023/04/26 14:39:29;;;;;;;;;;;;;;;;;;5038820;28;20366;-66
2023/04/26 14:41:55;;;;;;;;;;;;;;;;;;5066876;28;20286;-62
2023/04/26 14:44:21;;;;;;;;;;;;;;;;;;5064551;28;19924;-69
2023/04/26 14:46:46;;;;;;;;;;;;;;;;;;5063529;28;20369;-61
2023/04/26 14:49:11;;;;;;;;;;;;;;;;;;5059678;28;19921;-63
2023/04/26 14:51:37;;;;;;;;;;;;;;;;;;5061976;28;19917;-64
2023/04/26 14:54:02;;;;;;;;;;;;;;;;;;5063217;28;19920;-69
2023/04/26 14:56:27;;;;;;;;;;;;;;;;;;5064149;28;19927;-75
2023/04/26 14:58:52;;;;;;;;;;;;;;;;;;5061291;28;20295;-66
2023/04/26 15:01:18;;;;;;;;;;;;;;;;;;5055812;28;20397;-74
2023/04/26 15:03:43;;;;;;;;;;;;;;;;;;5052318;28;20775;-73
2023/04/26 15:06:08;;;;;;;;;;;;;;;;;;5067051;28;19927;-70
2023/04/26 15:08:34;;;;;;;;;;;;;;;;;;5064999;28;19999;-72
2023/04/26 15:10:59;;;;;;;;;;;;;;;;;;5062475;28;19948;-68
2023/04/26 15:13:24;;;;;;;;;;;;;;;;;;5060579;28;19925;-74
2023/04/26 15:15:50;;;;;;;;;;;;;;;;;;5067067;28;20247;-65
2023/04/26 15:18:15;;;;;;;;;;;;;;;;;;5064355;28;19919;-60
2023/04/26 15:20:40;;;;;;;;;;;;;;;;;;5066701;28;20429;-59
2023/04/26 15:23:06;;;;;;;;;;;;;;;;;;5059239;28;19913;-63
2023/04/26 15:25:32;;;;;;;;;;;;;;;;;;5051420;28;20099;-60
2023/04/26 15:27:57;;;;;;;;;;;;;;;;;;5052576;28;20429;-61
2023/04/26 15:30:22;;;;;;;;;;;;;;;;;;5063754;28;20371;-57
2023/04/26 15:32:49;;;;;;;;;;;;;;;;;;5061719;28;19991;-59
2023/04/26 15:35:14;;;;;;;;;;;;;;;;;;5064628;28;20097;-60
2023/04/26 15:37:39;;;;;;;;;;;;;;;;;;5065171;28;19917;-61
2023/04/26 15:40:05;;;;;;;;;;;;;;;;;;5065342;28;20325;-62
2023/04/26 15:42:30;;;;;;;;;;;;;;;;;;5064840;28;19924;-63
2023/04/26 15:44:55;;;;;;;;;;;;;;;;;;5065794;28;20002;-62
2023/04/26 15:47:21;;;;;;;;;;;;;;;;;;5065196;28;20437;-62
2023/04/26 15:49:46;;;;;;;;;;;;;;;;;;5063347;28;19912;-62
2023/04/26 15:52:12;;;;;;;;;;;;;;;;;;5057860;28;20378;-60
2023/04/26 15:54:37;;;;;;;;;;;;;;;;;;5062502;28;19927;-59
2023/04/26 15:57:05;;;;;;;;;;;;;;;;;;5063734;28;20010;-59
2023/04/26 15:59:30;;;;;;;;;;;;;;;;;;5061875;28;19923;-59
2023/04/26 16:01:56;;;;;;;;;;;;;;;;;;5059563;28;19917;-57
2023/04/26 16:04:21;;;;;;;;;;;;;;;;;;5058840;28;19924;-59
2023/04/26 16:06:46;;;;;;;;;;;;;;;;;;5058390;28;20466;-61
2023/04/26 16:09:16;;;;;;;;;;;;;;;;;;5059609;28;20355;-69
2023/04/26 16:11:42;;;;;;;;;;;;;;;;;;5047226;28;19916;-62
2023/04/26 16:14:07;;;;;;;;;;;;;;;;;;5061972;28;20245;-62
2023/04/26 16:16:32;;;;;;;;;;;;;;;;;;5059190;28;20379;-58
2023/04/26 16:18:58;;;;;;;;;;;;;;;;;;5062538;28;19972;-62
2023/04/26 16:21:23;;;;;;;;;;;;;;;;;;5062628;28;19916;-67
2023/04/26 16:23:50;;;;;;;;;;;;;;;;;;5050194;28;19932;-61
2023/04/26 16:26:15;;;;;;;;;;;;;;;;;;5063923;28;20257;-61
2023/04/26 16:28:40;;;;;;;;;;;;;;;;;;5046421;28;20062;-65
2023/04/26 16:31:06;;;;;;;;;;;;;;;;;;5065141;28;20070;-61
2023/04/26 16:33:31;;;;;;;;;;;;;;;;;;5064006;28;19917;-59
2023/04/26 16:35:56;;;;;;;;;;;;;;;;;;5060539;28;20078;-63